Terminal Aerodrome Forecast
Issued by NWS

Home | Current Version | Previous Version | Text Only | Print | Product List | Glossary On
Versions: 1 2 3 4 5 6 7 8 9 10 11 12 13 14 15 16 17 18 19 20 21
000
FTUS44 KBMX 232337
TAFTOI
TAF
KTOI 232337Z 2400/2424 20012G18KT P6SM BKN050
      TEMPO 2402/2405 4SM TSRA BKN025CB
     FM240500 21007KT P6SM VCSH BKN050
     FM240800 23005KT P6SM VCSH BKN007=

USA.gov is the U.S. government's official web portal to all federal, state and local government web resources and services.